createdAt,value
2023-10-13T00:01:40.191Z,17.20
2023-10-13T00:04:09.607Z,17.20
2023-10-13T00:06:38.629Z,17.20
2023-10-13T00:09:05.815Z,17.20
2023-10-13T00:11:32.952Z,17.20
2023-10-13T00:14:04.162Z,17.30
2023-10-13T00:16:32.168Z,17.20
2023-10-13T00:18:59.643Z,17.30
2023-10-13T00:21:32.827Z,17.20
2023-10-13T00:24:07.418Z,17.30
2023-10-13T00:26:37.582Z,17.30
2023-10-13T00:29:08.268Z,17.20
2023-10-13T00:31:42.024Z,17.30
2023-10-13T00:34:27.032Z,17.30
2023-10-13T00:37:17.743Z,17.40
2023-10-13T00:39:47.672Z,17.40
2023-10-13T00:42:20.523Z,17.40
2023-10-13T00:44:50.582Z,17.40
2023-10-13T00:47:38.774Z,17.40
2023-10-13T00:50:06.664Z,17.40
2023-10-13T00:52:36.497Z,17.30
2023-10-13T00:55:05.716Z,17.30
2023-10-13T00:57:34.519Z,17.30
2023-10-13T01:00:20.374Z,17.30
2023-10-13T01:02:56.805Z,17.20
2023-10-13T01:05:25.300Z,17.20
2023-10-13T01:07:55.861Z,17.20
2023-10-13T01:10:27.385Z,17.10
2023-10-13T01:12:57.668Z,17.10
2023-10-13T01:15:30.698Z,17.10
2023-10-13T01:18:13.552Z,17.10
2023-10-13T01:20:45.023Z,17.10
2023-10-13T01:23:25.695Z,17.00
2023-10-13T01:25:54.878Z,17.00
2023-10-13T01:28:23.059Z,17.00
2023-10-13T01:30:53.337Z,17.00
2023-10-13T01:33:28.438Z,17.00
2023-10-13T01:36:00.763Z,17.00
2023-10-13T01:38:28.415Z,17.00
2023-10-13T01:40:57.629Z,17.00
2023-10-13T01:43:25.377Z,17.00
2023-10-13T01:45:52.646Z,17.00
2023-10-13T01:48:22.441Z,17.10
2023-10-13T01:50:56.635Z,17.10
2023-10-13T01:53:24.012Z,17.10
2023-10-13T01:55:51.315Z,17.10
2023-10-13T01:58:23.715Z,17.10
2023-10-13T02:00:50.978Z,17.10
2023-10-13T02:03:18.613Z,17.20
2023-10-13T02:05:50.209Z,17.20
2023-10-13T02:08:25.745Z,17.20
2023-10-13T02:10:57.332Z,17.20
2023-10-13T02:13:27.165Z,17.20
2023-10-13T02:16:03.962Z,17.20
2023-10-13T02:18:44.241Z,17.20
2023-10-13T02:21:14.228Z,17.20
2023-10-13T02:24:00.661Z,17.20
2023-10-13T02:26:33.234Z,17.20
2023-10-13T02:29:06.017Z,17.20
2023-10-13T02:31:34.694Z,17.20
2023-10-13T02:34:07.072Z,17.20
2023-10-13T02:36:37.863Z,17.20
2023-10-13T02:39:09.009Z,17.20
2023-10-13T02:41:39.477Z,17.20
2023-10-13T02:44:07.637Z,17.20
2023-10-13T02:46:40.953Z,17.20
2023-10-13T02:49:11.916Z,17.20
2023-10-13T02:51:42.972Z,17.10
2023-10-13T02:54:11.797Z,17.10
2023-10-13T02:56:58.370Z,17.10
2023-10-13T02:59:41.691Z,17.10
2023-10-13T03:02:18.999Z,17.10
2023-10-13T03:04:48.615Z,17.10
2023-10-13T03:07:29.435Z,17.10
2023-10-13T03:10:01.498Z,17.10
2023-10-13T03:12:35.275Z,17.10
2023-10-13T03:15:18.680Z,17.10
2023-10-13T03:17:47.818Z,17.10
2023-10-13T03:20:17.203Z,17.10
2023-10-13T03:22:46.277Z,17.10
2023-10-13T03:25:24.116Z,17.10
2023-10-13T03:27:52.754Z,17.20
2023-10-13T03:30:22.069Z,17.20
2023-10-13T03:32:54.764Z,17.20
2023-10-13T03:35:25.562Z,17.20
2023-10-13T03:37:53.175Z,17.20
2023-10-13T03:40:21.208Z,17.20
2023-10-13T03:43:11.081Z,17.20
2023-10-13T03:45:48.844Z,17.20
2023-10-13T03:48:26.128Z,17.20
2023-10-13T03:51:04.512Z,17.30
2023-10-13T03:53:55.485Z,17.30
2023-10-13T03:56:31.160Z,17.30
2023-10-13T03:59:06.545Z,17.30
2023-10-13T04:01:55.090Z,17.40
2023-10-13T04:04:40.804Z,17.40
2023-10-13T04:07:11.183Z,17.40
2023-10-13T04:09:41.423Z,17.40
2023-10-13T04:12:27.768Z,17.30
2023-10-13T04:15:07.272Z,17.30
2023-10-13T04:17:41.485Z,17.40
2023-10-13T04:20:09.092Z,17.40
2023-10-13T04:22:49.939Z,17.40
2023-10-13T04:25:36.552Z,17.40
2023-10-13T04:28:14.146Z,17.40
2023-10-13T04:31:07.944Z,17.40
2023-10-13T04:33:35.156Z,17.40
2023-10-13T04:36:14.673Z,17.40
2023-10-13T04:38:58.107Z,17.40
2023-10-13T04:41:58.770Z,17.40
2023-10-13T04:44:44.867Z,17.40
2023-10-13T04:47:23.013Z,17.40
2023-10-13T04:49:51.179Z,17.50
2023-10-13T04:52:39.080Z,17.40
2023-10-13T04:55:34.009Z,17.40
2023-10-13T04:58:11.776Z,17.50
2023-10-13T05:01:17.150Z,17.40
2023-10-13T05:04:03.773Z,17.50
2023-10-13T05:06:42.873Z,17.50
2023-10-13T05:09:28.729Z,17.50
2023-10-13T05:12:14.767Z,17.50
2023-10-13T05:15:00.606Z,17.60
2023-10-13T05:17:46.743Z,17.50
2023-10-13T05:20:32.443Z,17.60
2023-10-13T05:23:18.269Z,17.60
2023-10-13T05:26:04.158Z,17.60
2023-10-13T05:28:49.882Z,17.60
2023-10-13T05:31:35.673Z,17.60
2023-10-13T05:34:21.864Z,17.50
2023-10-13T05:37:07.564Z,17.60
2023-10-13T05:39:53.332Z,17.50
2023-10-13T05:42:39.252Z,17.50
2023-10-13T05:45:18.630Z,17.50
2023-10-13T05:47:51.801Z,17.50
2023-10-13T05:50:22.407Z,17.40
2023-10-13T05:52:56.485Z,17.40
2023-10-13T05:55:44.811Z,17.40
2023-10-13T05:58:30.783Z,17.40
2023-10-13T06:01:16.999Z,17.40
2023-10-13T06:04:03.675Z,17.40
2023-10-13T06:06:49.678Z,17.40
2023-10-13T06:09:35.612Z,17.40
2023-10-13T06:12:21.665Z,17.40
2023-10-13T06:15:07.744Z,17.40
2023-10-13T06:17:53.794Z,17.40
2023-10-13T06:20:39.780Z,17.40
2023-10-13T06:23:25.648Z,17.40
2023-10-13T06:26:12.793Z,17.50
2023-10-13T06:28:43.550Z,17.50
2023-10-13T06:31:24.998Z,17.50
2023-10-13T06:33:52.633Z,17.50
2023-10-13T06:36:20.091Z,17.60
2023-10-13T06:38:56.038Z,17.50
2023-10-13T06:41:31.504Z,17.50
2023-10-13T06:44:01.799Z,17.50
2023-10-13T06:46:29.951Z,17.60
2023-10-13T06:49:00.579Z,17.70
2023-10-13T06:51:32.375Z,17.70
2023-10-13T06:54:01.308Z,17.80
2023-10-13T06:56:29.307Z,17.90
2023-10-13T06:59:00.451Z,18.00
2023-10-13T07:01:28.550Z,18.10
2023-10-13T07:04:02.152Z,18.20
2023-10-13T07:06:32.613Z,18.30
2023-10-13T07:09:05.549Z,18.40
2023-10-13T07:11:35.778Z,18.50
2023-10-13T07:14:21.157Z,18.70
2023-10-13T07:17:00.839Z,18.70
2023-10-13T07:19:31.353Z,18.80
2023-10-13T07:22:00.233Z,19.00
2023-10-13T07:24:32.987Z,19.00
2023-10-13T07:27:07.005Z,19.10
2023-10-13T07:29:37.769Z,19.10
2023-10-13T07:32:05.270Z,19.20
2023-10-13T07:34:33.484Z,19.20
2023-10-13T07:37:01.532Z,19.20
2023-10-13T07:39:35.306Z,19.20
2023-10-13T07:42:06.890Z,19.30
2023-10-13T07:44:34.782Z,19.30
2023-10-13T07:47:08.429Z,19.30
2023-10-13T07:49:40.234Z,19.40
2023-10-13T07:52:21.853Z,19.50
2023-10-13T07:55:01.426Z,19.60
2023-10-13T07:57:31.535Z,19.70
2023-10-13T08:00:09.727Z,19.90
2023-10-13T08:02:52.458Z,20.00
2023-10-13T08:05:30.692Z,20.10
2023-10-13T08:07:57.923Z,20.20
2023-10-13T08:10:28.261Z,20.30
2023-10-13T08:12:55.820Z,20.50
2023-10-13T08:15:32.631Z,20.50
2023-10-13T08:18:05.965Z,20.60
2023-10-13T08:20:39.320Z,20.60
2023-10-13T08:23:15.550Z,20.70
2023-10-13T08:26:01.367Z,20.80
2023-10-13T08:28:50.695Z,20.80
2023-10-13T08:31:27.081Z,20.90
2023-10-13T08:34:07.722Z,21.00
2023-10-13T08:36:39.128Z,21.10
2023-10-13T08:39:26.331Z,21.30
2023-10-13T08:42:13.307Z,21.40
2023-10-13T08:44:53.380Z,21.60
2023-10-13T08:47:21.883Z,21.70
2023-10-13T08:49:58.037Z,21.90
2023-10-13T08:52:43.898Z,22.00
2023-10-13T08:55:35.623Z,22.10
2023-10-13T08:58:15.475Z,22.40
2023-10-13T09:01:13.100Z,22.70
2023-10-13T09:03:43.263Z,22.90
2023-10-13T09:06:16.106Z,22.90
2023-10-13T09:09:02.382Z,22.90
2023-10-13T09:11:38.425Z,23.00
2023-10-13T09:14:30.208Z,23.20
2023-10-13T09:17:09.210Z,23.30
2023-10-13T09:19:59.209Z,23.30
2023-10-13T09:22:28.564Z,23.30
2023-10-13T09:24:59.512Z,23.50
2023-10-13T09:27:28.706Z,24.20
2023-10-13T09:30:19.579Z,25.00
2023-10-13T09:32:47.352Z,25.40
2023-10-13T09:35:20.640Z,25.30
2023-10-13T09:37:48.309Z,25.50
2023-10-13T09:40:34.779Z,25.60
2023-10-13T09:43:08.391Z,25.40
2023-10-13T09:46:06.158Z,25.10
2023-10-13T09:48:36.444Z,24.80
2023-10-13T09:51:08.062Z,24.70
2023-10-13T09:53:44.532Z,24.70
2023-10-13T09:56:28.079Z,24.80
2023-10-13T09:59:10.250Z,24.90
2023-10-13T10:01:51.398Z,25.20
2023-10-13T10:04:21.018Z,25.60
2023-10-13T10:06:55.447Z,26.60
2023-10-13T10:09:35.482Z,27.50
2023-10-13T10:12:29.805Z,28.00
2023-10-13T10:15:44.801Z,28.60
2023-10-13T10:18:23.319Z,28.60
2023-10-13T10:20:53.874Z,27.90
2023-10-13T10:23:37.215Z,27.70
2023-10-13T10:26:24.278Z,28.00
2023-10-13T10:28:51.558Z,28.70
2023-10-13T10:31:20.736Z,29.20
2023-10-13T10:33:51.704Z,29.80
2023-10-13T10:36:30.911Z,30.00
2023-10-13T10:39:01.935Z,29.80
2023-10-13T10:41:39.507Z,29.50
2023-10-13T10:44:31.960Z,29.60
2023-10-13T10:47:34.115Z,29.10
2023-10-13T10:50:08.691Z,28.00
2023-10-13T10:52:40.376Z,27.10
2023-10-13T10:55:15.044Z,26.50
2023-10-13T10:57:44.950Z,25.90
2023-10-13T11:00:22.039Z,25.50
2023-10-13T11:02:58.658Z,25.20
2023-10-13T11:05:33.361Z,25.00
2023-10-13T11:08:00.668Z,25.10
2023-10-13T11:10:28.948Z,25.20
2023-10-13T11:13:22.786Z,25.30
2023-10-13T11:15:51.663Z,25.30
2023-10-13T11:18:35.082Z,25.30
2023-10-13T11:21:07.923Z,25.50
2023-10-13T11:23:37.640Z,25.50
2023-10-13T11:26:06.254Z,25.40
2023-10-13T11:28:35.460Z,25.30
2023-10-13T11:31:11.914Z,25.00
2023-10-13T11:33:47.854Z,24.80
2023-10-13T11:36:20.465Z,24.50
2023-10-13T11:38:50.272Z,24.30
2023-10-13T11:41:21.067Z,24.20
2023-10-13T11:43:53.839Z,24.10
2023-10-13T11:46:39.178Z,24.00
2023-10-13T11:49:14.283Z,23.90
2023-10-13T11:51:52.029Z,23.90
2023-10-13T11:54:22.898Z,23.90
2023-10-13T11:56:51.133Z,23.90
2023-10-13T11:59:18.612Z,23.80
2023-10-13T12:02:05.959Z,23.90
2023-10-13T12:04:44.762Z,23.90
2023-10-13T12:07:21.309Z,23.90
2023-10-13T12:10:03.883Z,23.90
2023-10-13T12:12:41.387Z,24.00
2023-10-13T12:15:15.852Z,23.90
2023-10-13T12:17:46.254Z,23.90
2023-10-13T12:20:19.994Z,23.90
2023-10-13T12:22:56.575Z,23.80
2023-10-13T12:25:26.980Z,23.90
2023-10-13T12:27:58.118Z,23.90
2023-10-13T12:30:50.538Z,23.90
2023-10-13T12:33:25.375Z,24.00
2023-10-13T12:36:14.635Z,24.00
2023-10-13T12:38:48.236Z,24.00
2023-10-13T12:41:36.525Z,23.90
2023-10-13T12:44:24.819Z,23.90
2023-10-13T12:47:11.244Z,23.90
2023-10-13T12:49:45.158Z,23.90
2023-10-13T12:52:33.113Z,23.80
2023-10-13T12:55:07.568Z,23.90
2023-10-13T12:57:35.371Z,23.90
2023-10-13T13:00:18.179Z,23.90
2023-10-13T13:02:45.627Z,23.90
2023-10-13T13:05:13.370Z,23.80
2023-10-13T13:07:48.346Z,23.80
2023-10-13T13:10:16.334Z,23.80
2023-10-13T13:12:43.727Z,23.80
2023-10-13T13:15:12.803Z,23.70
2023-10-13T13:17:40.640Z,23.60
2023-10-13T13:20:29.177Z,23.50
2023-10-13T13:22:56.802Z,23.50
2023-10-13T13:25:31.116Z,23.40
2023-10-13T13:27:59.260Z,23.30
2023-10-13T13:30:34.014Z,23.30
2023-10-13T13:33:05.027Z,23.20
2023-10-13T13:35:36.015Z,23.20
2023-10-13T13:38:29.852Z,23.30
2023-10-13T13:40:57.179Z,23.20
2023-10-13T13:43:53.944Z,23.20
2023-10-13T13:46:28.806Z,23.20
2023-10-13T13:49:00.365Z,23.10
2023-10-13T13:51:33.003Z,23.00
2023-10-13T13:54:03.382Z,23.00
2023-10-13T13:56:39.220Z,23.00
2023-10-13T13:59:10.397Z,22.90
2023-10-13T14:01:38.580Z,22.90
2023-10-13T14:04:08.131Z,22.80
2023-10-13T14:06:36.102Z,22.80
2023-10-13T14:09:05.271Z,22.80
2023-10-13T14:11:39.600Z,22.70
2023-10-13T14:14:29.932Z,22.60
2023-10-13T14:17:18.343Z,22.60
2023-10-13T14:19:46.852Z,22.60
2023-10-13T14:22:14.436Z,22.50
2023-10-13T14:24:47.078Z,22.50
2023-10-13T14:27:20.181Z,22.50
2023-10-13T14:29:48.285Z,22.40
2023-10-13T14:32:16.735Z,22.40
2023-10-13T14:34:46.780Z,22.30
2023-10-13T14:37:14.306Z,22.30
2023-10-13T14:39:42.444Z,22.30
2023-10-13T14:42:09.708Z,22.30
2023-10-13T14:44:38.052Z,22.20
2023-10-13T14:47:10.237Z,22.20
2023-10-13T14:49:37.851Z,22.20
2023-10-13T14:52:05.436Z,22.20
2023-10-13T14:54:36.131Z,22.20
2023-10-13T14:57:04.452Z,22.20
2023-10-13T14:59:34.722Z,22.10
2023-10-13T15:02:05.499Z,22.20
2023-10-13T15:04:35.624Z,22.10
2023-10-13T15:07:03.569Z,22.10
2023-10-13T15:09:31.132Z,22.10
2023-10-13T15:11:58.292Z,22.10
2023-10-13T15:14:25.778Z,22.10
2023-10-13T15:16:58.854Z,22.10
2023-10-13T15:19:26.406Z,22.00
2023-10-13T15:21:55.445Z,22.00
2023-10-13T15:24:28.253Z,22.00
2023-10-13T15:27:03.162Z,22.00
2023-10-13T15:29:37.928Z,21.90
2023-10-13T15:32:27.922Z,21.80
2023-10-13T15:34:56.927Z,21.90
2023-10-13T15:37:27.005Z,21.80
2023-10-13T15:39:54.555Z,21.80
2023-10-13T15:42:22.142Z,21.80
2023-10-13T15:44:51.341Z,21.90
2023-10-13T15:49:49.149Z,21.90
2023-10-13T15:52:16.987Z,21.90
2023-10-13T15:54:44.380Z,21.80
2023-10-13T15:57:17.477Z,21.80
2023-10-13T15:59:47.101Z,21.80
2023-10-13T16:02:17.805Z,21.70
2023-10-13T16:04:45.966Z,21.70
2023-10-13T16:07:13.372Z,21.70
2023-10-13T16:09:40.611Z,21.70
2023-10-13T16:12:11.751Z,21.60
2023-10-13T16:14:39.089Z,21.50
2023-10-13T16:17:09.785Z,21.20
2023-10-13T16:19:37.727Z,21.10
2023-10-13T16:22:04.945Z,20.90
2023-10-13T16:24:34.341Z,20.90
2023-10-13T16:27:01.662Z,20.90
2023-10-13T16:29:32.345Z,21.00
2023-10-13T16:32:00.399Z,21.10
2023-10-13T16:34:27.671Z,21.20
2023-10-13T16:36:56.492Z,21.30
2023-10-13T16:39:24.278Z,21.40
2023-10-13T16:41:53.237Z,21.30
2023-10-13T16:44:26.551Z,21.30
2023-10-13T16:46:57.997Z,21.10
2023-10-13T16:49:26.245Z,21.00
2023-10-13T16:51:54.161Z,20.90
2023-10-13T16:54:22.501Z,20.90
2023-10-13T16:56:51.878Z,20.90
2023-10-13T16:59:19.214Z,20.90
2023-10-13T17:01:46.991Z,20.90
2023-10-13T17:04:17.161Z,21.00
2023-10-13T17:06:44.709Z,21.00
2023-10-13T17:09:12.741Z,20.80
2023-10-13T17:11:44.300Z,20.60
2023-10-13T17:14:11.504Z,20.40
2023-10-13T17:16:38.754Z,20.20
2023-10-13T17:19:06.796Z,20.10
2023-10-13T17:21:34.063Z,19.90
2023-10-13T17:24:04.730Z,19.60
2023-10-13T17:26:32.202Z,19.40
2023-10-13T17:28:59.939Z,19.40
2023-10-13T17:31:28.169Z,19.40
2023-10-13T17:33:59.434Z,19.50
2023-10-13T17:36:30.815Z,19.50
2023-10-13T17:38:58.602Z,19.50
2023-10-13T17:41:26.589Z,19.70
2023-10-13T17:43:54.280Z,19.70
2023-10-13T17:46:23.963Z,19.80
2023-10-13T17:48:55.555Z,19.80
2023-10-13T17:51:24.443Z,19.80
2023-10-13T17:53:53.667Z,19.80
2023-10-13T17:56:21.040Z,19.80
2023-10-13T17:58:48.662Z,19.80
2023-10-13T18:01:22.998Z,19.70
2023-10-13T18:03:53.009Z,19.60
2023-10-13T18:06:22.168Z,19.60
2023-10-13T18:08:51.302Z,19.70
2023-10-13T18:11:19.579Z,19.70
2023-10-13T18:13:49.077Z,19.80
2023-10-13T18:16:17.842Z,19.70
2023-10-13T18:18:45.489Z,19.60
2023-10-13T18:21:13.668Z,19.40
2023-10-13T18:23:41.443Z,19.30
2023-10-13T18:26:08.760Z,19.20
2023-10-13T18:28:36.941Z,19.20
2023-10-13T18:31:11.964Z,19.10
2023-10-13T18:33:42.760Z,18.90
2023-10-13T18:36:25.320Z,18.70
2023-10-13T18:38:53.150Z,18.60
2023-10-13T18:41:23.005Z,18.50
2023-10-13T18:43:52.954Z,18.40
2023-10-13T18:46:26.323Z,18.30
2023-10-13T18:48:58.528Z,18.30
2023-10-13T18:51:26.939Z,18.30
2023-10-13T18:53:57.661Z,18.50
2023-10-13T18:56:25.271Z,18.60
2023-10-13T18:58:56.385Z,18.70
2023-10-13T19:01:26.373Z,18.80
2023-10-13T19:03:56.007Z,19.00
2023-10-13T19:06:23.759Z,19.30
2023-10-13T19:08:53.792Z,19.50
2023-10-13T19:11:21.902Z,19.40
2023-10-13T19:13:53.730Z,19.20
2023-10-13T19:16:26.742Z,19.00
2023-10-13T19:18:54.982Z,19.00
2023-10-13T19:21:22.421Z,19.00
2023-10-13T19:23:51.380Z,19.10
2023-10-13T19:26:25.256Z,18.80
2023-10-13T19:28:56.179Z,18.50
2023-10-13T19:31:30.737Z,18.30
2023-10-13T19:34:03.331Z,18.10
2023-10-13T19:36:34.964Z,18.00
2023-10-13T19:39:08.311Z,17.90
2023-10-13T19:41:37.624Z,17.90
2023-10-13T19:44:05.911Z,17.80
2023-10-13T19:46:36.668Z,17.80
2023-10-13T19:49:04.718Z,17.80
2023-10-13T19:51:33.026Z,17.90
2023-10-13T19:54:04.625Z,18.10
2023-10-13T19:56:33.223Z,18.30
2023-10-13T19:59:03.721Z,18.60
2023-10-13T20:01:35.353Z,18.80
2023-10-13T20:04:07.755Z,19.10
2023-10-13T20:06:36.724Z,19.20
2023-10-13T20:09:10.715Z,19.50
2023-10-13T20:11:38.297Z,19.70
2023-10-13T20:14:05.855Z,19.80
2023-10-13T20:16:33.092Z,20.00
2023-10-13T20:19:00.573Z,20.20
2023-10-13T20:21:29.469Z,20.20
2023-10-13T20:24:00.635Z,20.20
2023-10-13T20:26:30.093Z,20.30
2023-10-13T20:28:57.982Z,20.30
2023-10-13T20:31:25.750Z,20.30
2023-10-13T20:33:55.879Z,20.40
2023-10-13T20:36:26.726Z,20.40
2023-10-13T20:38:54.124Z,20.40
2023-10-13T20:41:21.390Z,20.40
2023-10-13T20:43:53.355Z,20.40
2023-10-13T20:46:23.402Z,20.40
2023-10-13T20:48:50.746Z,20.40
2023-10-13T20:51:18.036Z,20.40
2023-10-13T20:53:47.918Z,20.30
2023-10-13T20:56:18.222Z,20.30
2023-10-13T20:58:49.537Z,20.30
2023-10-13T21:01:16.922Z,20.40
2023-10-13T21:03:44.733Z,20.40
2023-10-13T21:06:12.452Z,20.40
2023-10-13T21:08:46.952Z,20.40
2023-10-13T21:11:14.831Z,20.40
2023-10-13T21:13:42.761Z,20.50
2023-10-13T21:16:11.532Z,20.50
2023-10-13T21:18:44.257Z,20.60
2023-10-13T21:21:22.119Z,20.70
2023-10-13T21:23:50.707Z,20.70
2023-10-13T21:26:25.334Z,20.70
2023-10-13T21:28:52.735Z,20.70
2023-10-13T21:31:21.559Z,20.60
2023-10-13T21:33:50.842Z,20.70
2023-10-13T21:36:18.156Z,20.60
2023-10-13T21:38:51.654Z,20.60
2023-10-13T21:41:22.634Z,20.60
2023-10-13T21:43:54.569Z,20.60
2023-10-13T21:46:24.019Z,20.70
2023-10-13T21:48:55.014Z,20.60
2023-10-13T21:51:26.119Z,20.60
2023-10-13T21:53:53.908Z,20.60
2023-10-13T21:56:25.365Z,20.60
2023-10-13T21:58:52.782Z,20.60
2023-10-13T22:01:23.559Z,20.50
2023-10-13T22:03:52.924Z,20.50
2023-10-13T22:06:24.170Z,20.40
2023-10-13T22:08:51.699Z,20.40
2023-10-13T22:11:22.241Z,20.40
2023-10-13T22:13:50.088Z,20.40
2023-10-13T22:16:18.875Z,20.40
2023-10-13T22:18:49.961Z,20.30
2023-10-13T22:21:20.234Z,20.30
2023-10-13T22:23:48.061Z,20.20
2023-10-13T22:26:16.768Z,20.10
2023-10-13T22:28:48.229Z,20.10
2023-10-13T22:31:18.277Z,20.00
2023-10-13T22:33:46.319Z,20.00
2023-10-13T22:36:13.642Z,19.90
2023-10-13T22:38:42.037Z,19.90
2023-10-13T22:41:13.281Z,19.80
2023-10-13T22:43:41.037Z,19.70
2023-10-13T22:46:08.789Z,19.70
2023-10-13T22:48:36.439Z,19.60
2023-10-13T22:51:08.454Z,19.50
2023-10-13T22:53:37.277Z,19.50
2023-10-13T22:56:06.008Z,19.40
2023-10-13T22:58:38.209Z,19.40
2023-10-13T23:01:05.832Z,19.40
2023-10-13T23:03:36.510Z,19.40
2023-10-13T23:06:04.637Z,19.30
2023-10-13T23:08:38.825Z,19.30
2023-10-13T23:11:16.541Z,19.20
2023-10-13T23:13:52.400Z,19.20
2023-10-13T23:16:24.649Z,19.30
2023-10-13T23:19:01.709Z,19.30
2023-10-13T23:21:29.391Z,19.30
2023-10-13T23:23:57.612Z,19.20
2023-10-13T23:26:26.909Z,19.10
2023-10-13T23:28:54.785Z,19.20
2023-10-13T23:31:24.933Z,19.20
2023-10-13T23:33:54.747Z,19.20
2023-10-13T23:36:22.732Z,19.20
2023-10-13T23:39:10.113Z,19.20
2023-10-13T23:41:41.817Z,19.20
2023-10-13T23:44:16.010Z,19.10
2023-10-13T23:46:44.638Z,19.10
2023-10-13T23:49:19.839Z,19.10
2023-10-13T23:51:54.821Z,19.10
2023-10-13T23:54:22.669Z,19.10
2023-10-13T23:56:49.989Z,19.10
2023-10-13T23:59:40.970Z,19.10
